createdAt,value
2022-12-19T00:01:27.444Z,10.85
2022-12-19T00:03:58.165Z,13.80
2022-12-19T00:06:25.930Z,10.23
2022-12-19T00:08:53.746Z,9.57
2022-12-19T00:11:22.572Z,13.45
2022-12-19T00:13:49.272Z,12.10
2022-12-19T00:16:19.166Z,13.70
2022-12-19T00:18:47.715Z,12.85
2022-12-19T00:21:16.735Z,9.65
2022-12-19T00:23:44.631Z,7.25
2022-12-19T00:26:21.924Z,7.03
2022-12-19T00:28:52.388Z,9.65
2022-12-19T00:31:20.365Z,8.48
2022-12-19T00:33:47.648Z,6.53
2022-12-19T00:36:17.081Z,7.32
2022-12-19T00:38:49.835Z,6.40
2022-12-19T00:41:22.027Z,10.60
2022-12-19T00:43:52.684Z,8.45
2022-12-19T00:46:19.336Z,14.60
2022-12-19T00:48:46.000Z,16.65
2022-12-19T00:51:15.168Z,15.70
2022-12-19T00:53:43.051Z,13.68
2022-12-19T00:56:15.310Z,11.40
2022-12-19T00:58:46.834Z,8.13
2022-12-19T01:01:28.517Z,9.85
2022-12-19T01:06:43.919Z,9.40
2022-12-19T01:09:11.803Z,8.02
2022-12-19T01:11:56.800Z,8.82
2022-12-19T01:14:24.413Z,7.45
2022-12-19T01:16:51.725Z,6.35
2022-12-19T01:19:19.300Z,6.03
2022-12-19T01:21:45.884Z,3.35
2022-12-19T01:24:12.722Z,4.68
2022-12-19T01:26:40.368Z,3.50
2022-12-19T01:29:06.896Z,2.95
2022-12-19T01:31:33.697Z,3.00
2022-12-19T01:34:03.081Z,3.58
2022-12-19T01:36:29.989Z,3.38
2022-12-19T01:38:59.516Z,3.45
2022-12-19T01:41:27.316Z,3.80
2022-12-19T01:44:00.470Z,5.18
2022-12-19T01:46:51.040Z,8.23
2022-12-19T01:49:27.149Z,12.75
2022-12-19T01:51:58.585Z,9.55
2022-12-19T01:54:31.845Z,7.25
2022-12-19T01:56:59.655Z,9.50
2022-12-19T01:59:32.136Z,11.95
2022-12-19T02:02:08.580Z,19.45
2022-12-19T02:04:36.493Z,19.95
2022-12-19T02:07:15.929Z,19.58
2022-12-19T02:09:46.689Z,16.55
2022-12-19T02:12:14.209Z,15.13
2022-12-19T02:14:41.666Z,13.98
2022-12-19T02:17:46.452Z,11.90
2022-12-19T02:20:53.723Z,10.63
2022-12-19T02:23:46.413Z,9.38
2022-12-19T02:26:52.187Z,10.45
2022-12-19T02:30:04.632Z,11.32
2022-12-19T02:33:04.489Z,8.88
2022-12-19T02:35:54.936Z,13.48
2022-12-19T02:38:39.889Z,12.75
2022-12-19T02:41:25.444Z,14.15
2022-12-19T02:43:58.741Z,14.15
2022-12-19T02:46:28.294Z,12.05
2022-12-19T02:48:56.497Z,11.82
2022-12-19T02:51:23.068Z,12.55
2022-12-19T02:53:50.648Z,13.10
2022-12-19T02:56:42.968Z,10.07
2022-12-19T02:59:34.671Z,10.73
2022-12-19T03:02:11.949Z,10.30
2022-12-19T03:05:07.838Z,11.05
2022-12-19T03:07:43.937Z,9.75
2022-12-19T03:10:22.537Z,10.68
2022-12-19T03:13:12.214Z,9.00
2022-12-19T03:15:39.905Z,10.73
2022-12-19T03:18:07.256Z,10.00
2022-12-19T03:20:39.848Z,11.88
2022-12-19T03:23:06.526Z,10.00
2022-12-19T03:25:34.564Z,9.55
2022-12-19T03:28:06.590Z,9.52
2022-12-19T03:30:35.417Z,8.57
2022-12-19T03:33:03.577Z,9.13
2022-12-19T03:35:33.635Z,9.10
2022-12-19T03:38:03.002Z,8.65
2022-12-19T03:40:32.605Z,6.78
2022-12-19T03:43:11.998Z,8.50
2022-12-19T03:46:14.042Z,7.40
2022-12-19T03:48:52.941Z,5.72
2022-12-19T03:51:25.382Z,4.30
2022-12-19T03:53:57.777Z,5.07
2022-12-19T03:56:35.143Z,3.45
2022-12-19T03:59:07.263Z,3.08
2022-12-19T04:01:35.263Z,2.90
2022-12-19T04:04:04.251Z,3.67
2022-12-19T04:06:33.086Z,2.83
2022-12-19T04:09:00.963Z,2.75
2022-12-19T04:11:33.855Z,3.03
2022-12-19T04:14:05.994Z,3.30
2022-12-19T04:16:48.640Z,4.15
2022-12-19T04:19:25.391Z,2.65
2022-12-19T04:22:00.058Z,2.67
2022-12-19T04:24:30.914Z,2.20
2022-12-19T04:27:02.013Z,1.60
2022-12-19T04:29:33.092Z,2.45
2022-12-19T04:32:02.582Z,1.90
2022-12-19T04:34:29.177Z,2.50
2022-12-19T04:36:55.758Z,2.03
2022-12-19T04:39:22.285Z,2.10
2022-12-19T04:41:49.311Z,2.42
2022-12-19T04:44:15.815Z,2.47
2022-12-19T04:46:42.370Z,3.28
2022-12-19T04:49:08.950Z,3.75
2022-12-19T04:51:35.737Z,4.50
2022-12-19T04:54:02.324Z,3.00
2022-12-19T04:56:28.863Z,3.70
2022-12-19T04:59:00.028Z,2.67
2022-12-19T05:01:27.298Z,2.70
2022-12-19T05:03:56.545Z,2.40
2022-12-19T05:06:25.315Z,2.80
2022-12-19T05:08:51.897Z,3.78
2022-12-19T05:11:19.877Z,2.83
2022-12-19T05:13:46.617Z,2.85
2022-12-19T05:16:15.001Z,4.18
2022-12-19T05:18:42.024Z,3.50
2022-12-19T05:21:08.626Z,3.03
2022-12-19T05:23:35.220Z,3.40
2022-12-19T05:26:03.477Z,2.75
2022-12-19T05:28:30.797Z,3.72
2022-12-19T05:31:05.614Z,3.95
2022-12-19T05:33:32.297Z,3.92
2022-12-19T05:35:58.788Z,5.15
2022-12-19T05:38:26.449Z,3.55
2022-12-19T05:40:53.187Z,4.10
2022-12-19T05:43:19.705Z,3.75
2022-12-19T05:45:46.214Z,5.05
2022-12-19T05:48:13.383Z,3.95
2022-12-19T05:50:40.090Z,4.90
2022-12-19T05:53:09.560Z,5.95
2022-12-19T05:55:36.108Z,4.97
2022-12-19T05:58:02.645Z,8.05
2022-12-19T06:00:29.209Z,6.43
2022-12-19T06:02:55.966Z,8.02
2022-12-19T06:05:22.621Z,7.57
2022-12-19T06:07:49.145Z,5.40
2022-12-19T06:10:15.764Z,6.55
2022-12-19T06:12:42.292Z,7.45
2022-12-19T06:15:09.213Z,9.27
2022-12-19T06:17:35.742Z,6.22
2022-12-19T06:20:02.361Z,7.32
2022-12-19T06:22:28.959Z,6.32
2022-12-19T06:24:55.477Z,8.02
2022-12-19T06:27:22.006Z,7.35
2022-12-19T06:29:48.568Z,6.82
2022-12-19T06:32:15.076Z,7.72
2022-12-19T06:37:28.287Z,7.78
2022-12-19T06:39:54.875Z,9.60
2022-12-19T06:42:24.324Z,7.60
2022-12-19T06:44:56.195Z,10.20
2022-12-19T06:47:24.692Z,7.85
2022-12-19T06:49:51.842Z,9.10
2022-12-19T06:52:18.588Z,8.27
2022-12-19T06:54:45.456Z,9.18
2022-12-19T06:57:12.034Z,7.43
2022-12-19T06:59:38.593Z,7.95
2022-12-19T07:02:22.266Z,7.63
2022-12-19T07:04:55.265Z,7.53
2022-12-19T07:07:22.851Z,8.55
2022-12-19T07:09:49.360Z,8.98
2022-12-19T07:12:16.087Z,10.27
2022-12-19T07:14:42.680Z,10.25
2022-12-19T07:17:09.208Z,10.85
2022-12-19T07:19:36.140Z,9.80
2022-12-19T07:22:03.975Z,15.20
2022-12-19T07:24:30.871Z,13.15
2022-12-19T07:26:57.893Z,13.90
2022-12-19T07:29:24.451Z,15.10
2022-12-19T07:31:51.003Z,15.45
2022-12-19T07:34:17.534Z,15.75
2022-12-19T07:36:44.173Z,15.70
2022-12-19T07:39:11.086Z,15.02
2022-12-19T07:41:38.259Z,17.05
2022-12-19T07:44:06.569Z,17.77
2022-12-19T07:46:33.113Z,18.10
2022-12-19T07:49:00.050Z,19.63
2022-12-19T07:51:27.165Z,17.45
2022-12-19T07:53:53.730Z,14.85
2022-12-19T07:56:20.402Z,14.00
2022-12-19T07:58:47.073Z,15.80
2022-12-19T08:01:13.653Z,16.63
2022-12-19T08:03:40.272Z,13.82
2022-12-19T08:06:07.432Z,15.82
2022-12-19T08:08:35.297Z,13.65
2022-12-19T08:11:07.706Z,13.88
2022-12-19T08:13:39.711Z,11.45
2022-12-19T08:16:10.580Z,13.98
2022-12-19T08:18:37.498Z,13.30
2022-12-19T08:21:04.091Z,15.27
2022-12-19T08:23:30.582Z,11.80
2022-12-19T08:26:02.388Z,11.15
2022-12-19T08:28:29.202Z,16.85
2022-12-19T08:30:55.775Z,14.10
2022-12-19T08:33:22.851Z,10.57
2022-12-19T08:35:49.416Z,10.68
2022-12-19T08:38:15.986Z,12.43
2022-12-19T08:40:47.227Z,15.63
2022-12-19T08:43:14.073Z,12.13
2022-12-19T08:45:40.617Z,15.15
2022-12-19T08:48:07.670Z,12.00
2022-12-19T08:50:34.181Z,14.50
2022-12-19T08:53:00.733Z,12.13
2022-12-19T08:55:27.252Z,10.65
2022-12-19T08:57:55.950Z,12.85
2022-12-19T09:00:22.550Z,10.25
2022-12-19T09:02:50.156Z,11.60
2022-12-19T09:06:02.384Z,13.23
2022-12-19T09:08:03.811Z,12.38
2022-12-19T09:10:31.195Z,14.88
2022-12-19T09:12:58.516Z,15.00
2022-12-19T09:15:25.034Z,13.25
2022-12-19T09:17:51.542Z,17.92
2022-12-19T09:20:22.954Z,15.77
2022-12-19T09:22:50.007Z,18.02
2022-12-19T09:25:16.533Z,18.52
2022-12-19T09:28:17.909Z,16.25
2022-12-19T09:30:29.785Z,18.17
2022-12-19T09:32:57.559Z,20.77
2022-12-19T09:35:28.523Z,25.02
2022-12-19T09:38:00.279Z,20.38
2022-12-19T09:40:35.488Z,23.65
2022-12-19T09:43:22.634Z,22.08
2022-12-19T09:46:11.628Z,22.92
2022-12-19T09:48:38.283Z,24.60
2022-12-19T09:51:14.433Z,18.42
2022-12-19T09:53:53.789Z,18.50
2022-12-19T09:56:23.654Z,18.80
2022-12-19T09:58:56.290Z,15.13
2022-12-19T10:01:30.587Z,15.38
2022-12-19T10:04:18.419Z,16.17
2022-12-19T10:07:11.367Z,15.68
2022-12-19T10:11:53.397Z,14.60
2022-12-19T10:12:45.730Z,14.77
2022-12-19T10:15:27.132Z,13.85
2022-12-19T10:17:59.661Z,14.73
2022-12-19T10:20:41.383Z,15.43
2022-12-19T10:23:36.135Z,16.33
2022-12-19T10:26:30.593Z,12.10
2022-12-19T10:29:14.945Z,12.43
2022-12-19T10:31:53.874Z,10.80
2022-12-19T10:34:24.434Z,11.32
2022-12-19T10:37:25.627Z,10.38
2022-12-19T10:40:03.607Z,12.50
2022-12-19T10:43:32.800Z,12.27
2022-12-19T10:46:11.426Z,11.10
2022-12-19T10:48:38.102Z,12.55
2022-12-19T10:51:06.809Z,11.35
2022-12-19T10:53:34.164Z,10.60
2022-12-19T10:56:11.300Z,10.13
2022-12-19T10:58:41.947Z,11.32
2022-12-19T11:01:21.010Z,9.73
2022-12-19T11:04:29.080Z,10.50
2022-12-19T11:07:18.365Z,10.48
2022-12-19T11:09:47.066Z,11.45
2022-12-19T11:16:34.855Z,11.95
2022-12-19T11:19:43.468Z,11.60
2022-12-19T11:24:10.115Z,10.18
2022-12-19T11:29:37.221Z,10.18
2022-12-19T11:30:06.373Z,9.05
2022-12-19T11:30:43.935Z,10.75
2022-12-19T11:32:42.074Z,10.52
2022-12-19T11:35:36.768Z,9.55
2022-12-19T11:38:06.661Z,9.52
2022-12-19T11:40:49.141Z,10.93
2022-12-19T11:43:44.540Z,11.73
2022-12-19T11:46:38.759Z,16.70
2022-12-19T11:49:22.371Z,16.58
2022-12-19T11:51:56.375Z,17.42
2022-12-19T11:54:34.966Z,17.63
2022-12-19T11:57:01.910Z,18.05
2022-12-19T11:59:35.310Z,18.00
2022-12-19T12:02:23.673Z,14.77
2022-12-19T12:05:23.634Z,14.90
2022-12-19T12:11:06.128Z,11.35
2022-12-19T12:15:15.079Z,13.02
2022-12-19T12:24:21.566Z,12.40
2022-12-19T12:28:55.294Z,12.05
2022-12-19T12:31:09.191Z,11.32
2022-12-19T12:31:10.130Z,12.15
2022-12-19T12:31:56.046Z,10.50
2022-12-19T12:31:57.249Z,11.85
2022-12-19T12:35:32.826Z,11.18
2022-12-19T12:42:02.771Z,11.13
2022-12-19T12:44:33.740Z,10.55
2022-12-19T12:47:16.896Z,10.60
2022-12-19T12:49:47.117Z,11.55
2022-12-19T12:52:21.502Z,10.32
2022-12-19T12:54:49.649Z,8.65
2022-12-19T12:57:27.325Z,8.57
2022-12-19T13:00:17.375Z,9.40
2022-12-19T13:02:54.719Z,12.05
2022-12-19T13:05:32.359Z,8.82
2022-12-19T13:07:58.933Z,8.05
2022-12-19T13:10:27.111Z,7.18
2022-12-19T13:12:59.729Z,5.13
2022-12-19T13:15:37.067Z,5.30
2022-12-19T13:18:14.521Z,4.50
2022-12-19T13:20:48.062Z,4.57
2022-12-19T13:23:29.768Z,5.97
2022-12-19T13:25:56.680Z,7.97
2022-12-19T13:28:23.183Z,10.40
2022-12-19T13:31:16.627Z,9.65
2022-12-19T13:33:53.602Z,7.53
2022-12-19T13:39:59.033Z,5.68
2022-12-19T13:40:07.520Z,4.35
2022-12-19T13:43:09.367Z,7.18
2022-12-19T13:45:41.384Z,6.88
2022-12-19T13:48:16.224Z,7.45
2022-12-19T13:50:47.548Z,7.25
2022-12-19T13:53:24.404Z,7.43
2022-12-19T13:55:55.570Z,5.95
2022-12-19T13:58:29.152Z,4.32
2022-12-19T14:01:02.421Z,5.43
2022-12-19T14:03:40.471Z,4.20
2022-12-19T14:06:20.304Z,4.97
2022-12-19T14:09:25.319Z,6.15
2022-12-19T14:13:44.879Z,6.97
2022-12-19T14:15:12.364Z,5.43
2022-12-19T14:17:36.735Z,4.45
2022-12-19T14:22:04.278Z,7.10
2022-12-19T14:23:04.684Z,7.13
2022-12-19T14:28:15.018Z,6.20
2022-12-19T14:28:54.688Z,7.13
2022-12-19T14:31:23.777Z,6.55
2022-12-19T14:36:46.854Z,6.03
2022-12-19T14:39:24.875Z,6.47
2022-12-19T14:43:56.292Z,7.85
2022-12-19T14:52:35.101Z,5.82
2022-12-19T14:54:11.033Z,6.97
2022-12-19T14:54:21.092Z,5.18
2022-12-19T14:57:03.520Z,4.28
2022-12-19T14:59:45.982Z,5.15
2022-12-19T15:02:30.588Z,5.50
2022-12-19T15:05:07.572Z,9.55
2022-12-19T15:07:35.231Z,5.70
2022-12-19T15:11:09.506Z,6.55
2022-12-19T15:14:55.229Z,5.13
2022-12-19T15:16:02.193Z,5.57
2022-12-19T15:18:39.719Z,4.18
2022-12-19T15:21:12.502Z,4.00
2022-12-19T15:23:39.061Z,4.85
2022-12-19T15:26:12.063Z,3.72
2022-12-19T15:28:43.145Z,4.32
2022-12-19T15:31:38.466Z,5.00
2022-12-19T15:34:44.712Z,3.40
2022-12-19T15:37:14.686Z,3.10
2022-12-19T15:39:42.113Z,3.10
2022-12-19T15:42:21.779Z,1.58
2022-12-19T15:44:50.805Z,3.83
2022-12-19T15:47:23.199Z,3.33
2022-12-19T15:49:49.786Z,2.60
2022-12-19T15:52:21.620Z,2.42
2022-12-19T15:57:41.959Z,3.25
2022-12-19T16:00:23.415Z,2.30
2022-12-19T16:05:37.867Z,2.42
2022-12-19T16:08:15.815Z,2.20
2022-12-19T16:10:44.743Z,1.20
2022-12-19T16:13:24.159Z,1.60
2022-12-19T16:15:52.155Z,1.80
2022-12-19T16:18:19.879Z,2.00
2022-12-19T16:20:47.642Z,6.15
2022-12-19T16:23:15.030Z,3.50
2022-12-19T16:25:47.858Z,4.22
2022-12-19T16:28:25.648Z,2.50
2022-12-19T16:30:52.487Z,7.47
2022-12-19T16:33:24.223Z,11.68
2022-12-19T16:38:35.487Z,5.90
2022-12-19T16:41:02.233Z,5.97
2022-12-19T16:43:46.957Z,7.60
2022-12-19T16:46:21.091Z,6.38
2022-12-19T16:48:48.071Z,6.47
2022-12-19T16:51:25.881Z,5.78
2022-12-19T16:53:55.028Z,4.47
2022-12-19T16:56:25.148Z,12.73
2022-12-19T16:58:52.626Z,12.90
2022-12-19T17:01:20.313Z,19.55
2022-12-19T17:03:47.247Z,14.07
2022-12-19T17:06:16.714Z,14.10
2022-12-19T17:08:43.905Z,9.93
2022-12-19T17:11:15.449Z,7.43
2022-12-19T17:13:43.627Z,9.38
2022-12-19T17:16:10.257Z,6.63
2022-12-19T17:18:42.343Z,7.95
2022-12-19T17:21:21.888Z,7.22
2022-12-19T17:23:49.937Z,7.43
2022-12-19T17:26:18.243Z,6.05
2022-12-19T17:28:48.213Z,5.63
2022-12-19T17:31:25.861Z,6.43
2022-12-19T17:33:55.940Z,8.63
2022-12-19T17:36:32.754Z,6.88
2022-12-19T17:39:04.134Z,7.60
2022-12-19T17:41:31.146Z,8.75
2022-12-19T17:43:57.797Z,9.05
2022-12-19T17:46:25.052Z,5.75
2022-12-19T17:48:53.405Z,8.15
2022-12-19T17:51:21.925Z,7.60
2022-12-19T17:53:49.472Z,8.32
2022-12-19T17:56:18.181Z,8.00
2022-12-19T17:58:44.939Z,5.97
2022-12-19T18:01:19.640Z,5.63
2022-12-19T18:03:47.637Z,6.47
2022-12-19T18:06:15.330Z,7.75
2022-12-19T18:08:42.603Z,6.28
2022-12-19T18:11:23.246Z,9.32
2022-12-19T18:13:50.066Z,15.02
2022-12-19T18:16:19.729Z,8.25
2022-12-19T18:18:46.728Z,11.10
2022-12-19T18:21:19.366Z,13.45
2022-12-19T18:23:46.456Z,11.75
2022-12-19T18:26:13.751Z,11.05
2022-12-19T18:28:41.585Z,10.32
2022-12-19T18:31:16.263Z,10.80
2022-12-19T18:33:45.574Z,9.43
2022-12-19T18:36:19.183Z,8.50
2022-12-19T18:38:46.564Z,7.78
2022-12-19T18:41:13.193Z,7.93
2022-12-19T18:43:39.836Z,6.40
2022-12-19T18:46:06.978Z,11.20
2022-12-19T18:48:39.331Z,9.07
2022-12-19T18:51:06.135Z,15.25
2022-12-19T18:53:35.795Z,10.30
2022-12-19T18:56:04.395Z,11.85
2022-12-19T18:58:31.213Z,10.25
2022-12-19T19:01:00.360Z,8.93
2022-12-19T19:03:39.341Z,9.35
2022-12-19T19:06:20.823Z,7.97
2022-12-19T19:08:48.131Z,12.27
2022-12-19T19:11:27.679Z,11.73
2022-12-19T19:13:54.311Z,7.85
2022-12-19T19:16:26.098Z,8.57
2022-12-19T19:18:55.379Z,8.82
2022-12-19T19:21:28.557Z,10.48
2022-12-19T19:23:59.241Z,14.07
2022-12-19T19:26:25.902Z,12.10
2022-12-19T19:28:52.943Z,8.02
2022-12-19T19:31:23.263Z,12.25
2022-12-19T19:33:55.561Z,20.38
2022-12-19T19:36:25.598Z,13.43
2022-12-19T19:38:56.094Z,9.50
2022-12-19T19:41:29.288Z,8.95
2022-12-19T19:43:57.055Z,11.95
2022-12-19T19:46:23.745Z,8.93
2022-12-19T19:48:50.314Z,12.65
2022-12-19T19:51:17.726Z,11.98
2022-12-19T19:53:44.504Z,11.18
2022-12-19T19:56:11.069Z,17.48
2022-12-19T19:58:37.639Z,16.40
2022-12-19T20:01:09.227Z,11.25
2022-12-19T20:03:36.182Z,15.18
2022-12-19T20:06:03.153Z,13.55
2022-12-19T20:08:37.072Z,16.23
2022-12-19T20:11:06.219Z,15.02
2022-12-19T20:13:33.234Z,15.40
2022-12-19T20:16:19.314Z,12.95
2022-12-19T20:18:51.629Z,9.95
2022-12-19T20:21:19.895Z,11.48
2022-12-19T20:23:46.858Z,10.15
2022-12-19T20:26:15.452Z,9.50
2022-12-19T20:28:48.391Z,11.70
2022-12-19T20:31:19.747Z,12.48
2022-12-19T20:33:47.849Z,9.27
2022-12-19T20:36:15.469Z,10.90
2022-12-19T20:38:42.494Z,11.80
2022-12-19T20:41:09.099Z,9.50
2022-12-19T20:43:39.196Z,9.45
2022-12-19T20:46:12.332Z,9.77
2022-12-19T20:48:39.011Z,10.25
2022-12-19T20:51:06.760Z,13.32
2022-12-19T20:53:34.987Z,8.43
2022-12-19T20:56:03.611Z,8.88
2022-12-19T20:58:32.974Z,10.63
2022-12-19T21:01:24.226Z,11.60
2022-12-19T21:03:51.855Z,10.98
2022-12-19T21:06:20.337Z,11.38
2022-12-19T21:08:47.391Z,12.55
2022-12-19T21:11:15.612Z,10.43
2022-12-19T21:13:43.215Z,10.82
2022-12-19T21:16:14.072Z,10.85
2022-12-19T21:18:42.198Z,10.13
2022-12-19T21:21:12.908Z,10.40
2022-12-19T21:23:39.614Z,12.25
2022-12-19T21:26:06.224Z,9.18
2022-12-19T21:28:33.607Z,9.98
2022-12-19T21:31:03.724Z,12.57
2022-12-19T21:33:31.040Z,15.50
2022-12-19T21:35:58.120Z,13.68
2022-12-19T21:38:26.848Z,12.75
2022-12-19T21:40:53.950Z,12.15
2022-12-19T21:43:22.191Z,10.80
2022-12-19T21:45:48.814Z,8.35
2022-12-19T21:48:15.548Z,8.57
2022-12-19T21:50:42.264Z,8.25
2022-12-19T21:53:11.110Z,8.13
2022-12-19T21:55:37.694Z,7.40
2022-12-19T21:58:07.790Z,9.00
2022-12-19T22:00:34.429Z,12.00
2022-12-19T22:03:14.038Z,8.40
2022-12-19T22:05:42.584Z,8.40
2022-12-19T22:08:10.526Z,8.95
2022-12-19T22:10:39.521Z,14.18
2022-12-19T22:13:06.088Z,13.27
2022-12-19T22:15:34.912Z,14.23
2022-12-19T22:18:01.675Z,21.10
2022-12-19T22:20:28.218Z,20.45
2022-12-19T22:22:54.755Z,26.27
2022-12-19T22:25:21.329Z,11.25
2022-12-19T22:27:47.835Z,11.50
2022-12-19T22:30:15.633Z,11.82
2022-12-19T22:32:42.139Z,10.15
2022-12-19T22:35:08.799Z,7.22
2022-12-19T22:37:35.369Z,4.97
2022-12-19T22:40:04.044Z,5.90
2022-12-19T22:42:30.602Z,4.95
2022-12-19T22:44:57.239Z,6.10
2022-12-19T22:47:23.758Z,6.25
2022-12-19T22:49:51.014Z,7.55
2022-12-19T22:52:17.509Z,4.50
2022-12-19T22:54:44.405Z,5.03
2022-12-19T22:57:10.925Z,5.75
2022-12-19T22:59:37.443Z,5.97
2022-12-19T23:02:04.239Z,6.93
2022-12-19T23:04:30.851Z,6.80
2022-12-19T23:06:57.346Z,6.72
2022-12-19T23:09:24.098Z,5.40
2022-12-19T23:11:50.729Z,4.82
2022-12-19T23:14:19.393Z,4.88
2022-12-19T23:16:46.071Z,4.50
2022-12-19T23:19:15.293Z,4.95
2022-12-19T23:21:41.801Z,5.40
2022-12-19T23:24:08.500Z,4.00
2022-12-19T23:26:37.662Z,4.05
2022-12-19T23:29:07.002Z,5.72
2022-12-19T23:31:34.468Z,5.95
2022-12-19T23:34:01.621Z,5.32
2022-12-19T23:37:08.187Z,4.10
2022-12-19T23:39:14.972Z,5.20
2022-12-19T23:41:41.564Z,5.00
2022-12-19T23:44:09.535Z,4.72
2022-12-19T23:46:36.535Z,4.10
2022-12-19T23:49:03.420Z,3.75
2022-12-19T23:51:30.145Z,2.70
2022-12-19T23:53:56.744Z,3.63
2022-12-19T23:56:28.559Z,3.20
